sensor_id;sensor_type;location;lat;lon;timestamp;P1;durP1;ratioP1;P2;durP2;ratioP2
24137;SDS011;17947;50.672;6.076;2022-11-20T00:01:49;2.95;;;2.67;;
24137;SDS011;17947;50.672;6.076;2022-11-20T00:04:15;3.63;;;2.30;;
24137;SDS011;17947;50.672;6.076;2022-11-20T00:06:41;3.42;;;2.65;;
24137;SDS011;17947;50.672;6.076;2022-11-20T00:09:09;2.90;;;2.33;;
24137;SDS011;17947;50.672;6.076;2022-11-20T00:11:35;2.40;;;2.20;;
24137;SDS011;17947;50.672;6.076;2022-11-20T00:14:01;3.00;;;2.63;;
24137;SDS011;17947;50.672;6.076;2022-11-20T00:16:28;4.60;;;2.45;;
24137;SDS011;17947;50.672;6.076;2022-11-20T00:18:55;3.42;;;2.47;;
24137;SDS011;17947;50.672;6.076;2022-11-20T00:21:22;3.10;;;2.75;;
24137;SDS011;17947;50.672;6.076;2022-11-20T00:23:49;3.08;;;2.50;;
24137;SDS011;17947;50.672;6.076;2022-11-20T00:26:16;3.15;;;2.67;;
24137;SDS011;17947;50.672;6.076;2022-11-20T00:28:42;3.50;;;2.75;;
24137;SDS011;17947;50.672;6.076;2022-11-20T00:33:35;2.88;;;2.55;;
24137;SDS011;17947;50.672;6.076;2022-11-20T00:36:06;3.38;;;2.67;;
24137;SDS011;17947;50.672;6.076;2022-11-20T00:38:33;2.80;;;2.50;;
24137;SDS011;17947;50.672;6.076;2022-11-20T00:41:00;3.65;;;2.88;;
24137;SDS011;17947;50.672;6.076;2022-11-20T00:43:26;2.88;;;2.53;;
24137;SDS011;17947;50.672;6.076;2022-11-20T00:45:56;4.55;;;3.08;;
24137;SDS011;17947;50.672;6.076;2022-11-20T00:48:22;3.30;;;2.80;;
24137;SDS011;17947;50.672;6.076;2022-11-20T00:50:49;3.22;;;2.50;;
24137;SDS011;17947;50.672;6.076;2022-11-20T00:53:15;3.40;;;2.50;;
24137;SDS011;17947;50.672;6.076;2022-11-20T00:55:41;4.05;;;3.13;;
24137;SDS011;17947;50.672;6.076;2022-11-20T00:58:07;3.38;;;3.08;;
24137;SDS011;17947;50.672;6.076;2022-11-20T01:00:33;3.40;;;2.90;;
24137;SDS011;17947;50.672;6.076;2022-11-20T01:02:59;3.95;;;2.75;;
24137;SDS011;17947;50.672;6.076;2022-11-20T01:05:25;3.60;;;2.70;;
24137;SDS011;17947;50.672;6.076;2022-11-20T01:07:52;3.70;;;2.70;;
24137;SDS011;17947;50.672;6.076;2022-11-20T01:10:17;4.07;;;2.60;;
24137;SDS011;17947;50.672;6.076;2022-11-20T01:12:44;3.85;;;2.63;;
24137;SDS011;17947;50.672;6.076;2022-11-20T01:15:29;3.20;;;2.65;;
24137;SDS011;17947;50.672;6.076;2022-11-20T01:17:56;2.85;;;2.53;;
24137;SDS011;17947;50.672;6.076;2022-11-20T01:20:21;3.42;;;2.45;;
24137;SDS011;17947;50.672;6.076;2022-11-20T01:22:47;3.08;;;2.78;;
24137;SDS011;17947;50.672;6.076;2022-11-20T01:25:14;3.08;;;2.63;;
24137;SDS011;17947;50.672;6.076;2022-11-20T01:27:40;2.88;;;2.47;;
24137;SDS011;17947;50.672;6.076;2022-11-20T01:30:06;3.25;;;2.75;;
24137;SDS011;17947;50.672;6.076;2022-11-20T01:32:32;3.28;;;2.70;;
24137;SDS011;17947;50.672;6.076;2022-11-20T01:34:58;2.65;;;2.33;;
24137;SDS011;17947;50.672;6.076;2022-11-20T01:37:24;3.08;;;2.40;;
24137;SDS011;17947;50.672;6.076;2022-11-20T01:39:50;3.13;;;2.70;;
24137;SDS011;17947;50.672;6.076;2022-11-20T01:42:16;2.63;;;2.22;;
24137;SDS011;17947;50.672;6.076;2022-11-20T01:45:01;2.70;;;2.50;;
24137;SDS011;17947;50.672;6.076;2022-11-20T01:49:58;4.43;;;2.78;;
24137;SDS011;17947;50.672;6.076;2022-11-20T01:52:45;3.20;;;2.80;;
24137;SDS011;17947;50.672;6.076;2022-11-20T01:55:18;3.35;;;2.80;;
24137;SDS011;17947;50.672;6.076;2022-11-20T01:57:45;2.67;;;2.40;;
24137;SDS011;17947;50.672;6.076;2022-11-20T02:00:13;3.08;;;2.30;;
24137;SDS011;17947;50.672;6.076;2022-11-20T02:02:41;2.55;;;2.22;;
24137;SDS011;17947;50.672;6.076;2022-11-20T02:05:11;2.97;;;2.42;;
24137;SDS011;17947;50.672;6.076;2022-11-20T02:07:40;3.10;;;2.53;;
24137;SDS011;17947;50.672;6.076;2022-11-20T02:10:07;3.25;;;2.63;;
24137;SDS011;17947;50.672;6.076;2022-11-20T02:12:33;4.28;;;2.88;;
24137;SDS011;17947;50.672;6.076;2022-11-20T02:15:18;3.65;;;2.72;;
24137;SDS011;17947;50.672;6.076;2022-11-20T02:17:44;4.10;;;3.08;;
24137;SDS011;17947;50.672;6.076;2022-11-20T02:20:10;3.40;;;2.90;;
24137;SDS011;17947;50.672;6.076;2022-11-20T02:22:38;3.70;;;2.90;;
24137;SDS011;17947;50.672;6.076;2022-11-20T02:25:06;3.28;;;2.58;;
24137;SDS011;17947;50.672;6.076;2022-11-20T02:27:33;3.05;;;2.70;;
24137;SDS011;17947;50.672;6.076;2022-11-20T02:30:00;3.53;;;2.70;;
24137;SDS011;17947;50.672;6.076;2022-11-20T02:32:34;3.58;;;2.65;;
24137;SDS011;17947;50.672;6.076;2022-11-20T02:37:34;3.72;;;2.80;;
24137;SDS011;17947;50.672;6.076;2022-11-20T02:40:01;3.80;;;3.05;;
24137;SDS011;17947;50.672;6.076;2022-11-20T02:42:27;3.53;;;2.70;;
24137;SDS011;17947;50.672;6.076;2022-11-20T02:44:53;3.05;;;2.53;;
24137;SDS011;17947;50.672;6.076;2022-11-20T02:47:19;3.25;;;2.75;;
24137;SDS011;17947;50.672;6.076;2022-11-20T02:49:45;3.58;;;2.75;;
24137;SDS011;17947;50.672;6.076;2022-11-20T02:52:11;3.25;;;2.70;;
24137;SDS011;17947;50.672;6.076;2022-11-20T02:54:37;3.17;;;2.72;;
24137;SDS011;17947;50.672;6.076;2022-11-20T02:57:03;3.03;;;2.60;;
24137;SDS011;17947;50.672;6.076;2022-11-20T02:59:29;3.08;;;2.70;;
24137;SDS011;17947;50.672;6.076;2022-11-20T03:01:56;4.13;;;2.88;;
24137;SDS011;17947;50.672;6.076;2022-11-20T03:04:22;4.03;;;2.80;;
24137;SDS011;17947;50.672;6.076;2022-11-20T03:06:48;4.43;;;3.13;;
24137;SDS011;17947;50.672;6.076;2022-11-20T03:09:14;4.28;;;2.85;;
24137;SDS011;17947;50.672;6.076;2022-11-20T03:11:40;3.33;;;2.53;;
24137;SDS011;17947;50.672;6.076;2022-11-20T03:14:06;3.00;;;2.53;;
24137;SDS011;17947;50.672;6.076;2022-11-20T03:16:32;3.85;;;3.05;;
24137;SDS011;17947;50.672;6.076;2022-11-20T03:18:59;3.22;;;2.75;;
24137;SDS011;17947;50.672;6.076;2022-11-20T03:21:25;2.95;;;2.65;;
24137;SDS011;17947;50.672;6.076;2022-11-20T03:23:52;3.60;;;2.72;;
24137;SDS011;17947;50.672;6.076;2022-11-20T03:26:20;3.72;;;2.50;;
24137;SDS011;17947;50.672;6.076;2022-11-20T03:28:53;3.30;;;2.88;;
24137;SDS011;17947;50.672;6.076;2022-11-20T03:31:21;3.60;;;3.03;;
24137;SDS011;17947;50.672;6.076;2022-11-20T03:33:47;4.03;;;2.90;;
24137;SDS011;17947;50.672;6.076;2022-11-20T03:36:14;3.20;;;2.80;;
24137;SDS011;17947;50.672;6.076;2022-11-20T03:38:40;3.20;;;2.63;;
24137;SDS011;17947;50.672;6.076;2022-11-20T03:41:08;3.60;;;2.50;;
24137;SDS011;17947;50.672;6.076;2022-11-20T03:43:34;3.38;;;2.60;;
24137;SDS011;17947;50.672;6.076;2022-11-20T03:46:00;3.50;;;2.67;;
24137;SDS011;17947;50.672;6.076;2022-11-20T03:48:27;3.08;;;2.65;;
24137;SDS011;17947;50.672;6.076;2022-11-20T03:50:53;3.00;;;2.50;;
24137;SDS011;17947;50.672;6.076;2022-11-20T03:53:19;3.50;;;2.90;;
24137;SDS011;17947;50.672;6.076;2022-11-20T03:55:50;3.13;;;2.60;;
24137;SDS011;17947;50.672;6.076;2022-11-20T03:58:16;3.92;;;3.03;;
24137;SDS011;17947;50.672;6.076;2022-11-20T04:00:43;4.07;;;3.05;;
24137;SDS011;17947;50.672;6.076;2022-11-20T04:03:09;3.70;;;2.80;;
24137;SDS011;17947;50.672;6.076;2022-11-20T04:05:38;3.75;;;2.70;;
24137;SDS011;17947;50.672;6.076;2022-11-20T04:08:04;4.28;;;3.00;;
24137;SDS011;17947;50.672;6.076;2022-11-20T04:10:30;4.35;;;3.20;;
24137;SDS011;17947;50.672;6.076;2022-11-20T04:12:56;3.95;;;3.20;;
24137;SDS011;17947;50.672;6.076;2022-11-20T04:15:22;3.10;;;2.75;;
24137;SDS011;17947;50.672;6.076;2022-11-20T04:17:48;3.95;;;2.90;;
24137;SDS011;17947;50.672;6.076;2022-11-20T04:20:14;3.70;;;2.90;;
24137;SDS011;17947;50.672;6.076;2022-11-20T04:22:40;4.57;;;3.22;;
24137;SDS011;17947;50.672;6.076;2022-11-20T04:25:06;3.90;;;2.80;;
24137;SDS011;17947;50.672;6.076;2022-11-20T04:27:33;3.60;;;2.88;;
24137;SDS011;17947;50.672;6.076;2022-11-20T04:29:59;3.60;;;2.72;;
24137;SDS011;17947;50.672;6.076;2022-11-20T04:32:25;3.35;;;2.72;;
24137;SDS011;17947;50.672;6.076;2022-11-20T04:34:51;4.03;;;2.90;;
24137;SDS011;17947;50.672;6.076;2022-11-20T04:37:17;3.42;;;2.70;;
24137;SDS011;17947;50.672;6.076;2022-11-20T04:39:43;3.60;;;2.92;;
24137;SDS011;17947;50.672;6.076;2022-11-20T04:42:09;3.25;;;2.67;;
24137;SDS011;17947;50.672;6.076;2022-11-20T04:44:54;3.58;;;2.83;;
24137;SDS011;17947;50.672;6.076;2022-11-20T04:47:20;3.75;;;2.80;;
24137;SDS011;17947;50.672;6.076;2022-11-20T04:49:46;2.70;;;2.50;;
24137;SDS011;17947;50.672;6.076;2022-11-20T04:52:12;3.83;;;2.90;;
24137;SDS011;17947;50.672;6.076;2022-11-20T04:54:38;3.20;;;2.90;;
24137;SDS011;17947;50.672;6.076;2022-11-20T04:57:04;3.08;;;2.63;;
24137;SDS011;17947;50.672;6.076;2022-11-20T04:59:30;3.72;;;2.83;;
24137;SDS011;17947;50.672;6.076;2022-11-20T05:01:57;3.30;;;2.70;;
24137;SDS011;17947;50.672;6.076;2022-11-20T05:04:23;3.55;;;2.95;;
24137;SDS011;17947;50.672;6.076;2022-11-20T05:06:49;3.88;;;2.80;;
24137;SDS011;17947;50.672;6.076;2022-11-20T05:09:15;3.53;;;3.00;;
24137;SDS011;17947;50.672;6.076;2022-11-20T05:11:41;3.30;;;2.58;;
24137;SDS011;17947;50.672;6.076;2022-11-20T05:14:07;3.53;;;2.78;;
24137;SDS011;17947;50.672;6.076;2022-11-20T05:16:34;3.63;;;3.00;;
24137;SDS011;17947;50.672;6.076;2022-11-20T05:19:01;3.35;;;2.88;;
24137;SDS011;17947;50.672;6.076;2022-11-20T05:21:27;2.97;;;2.60;;
24137;SDS011;17947;50.672;6.076;2022-11-20T05:23:52;3.40;;;2.80;;
24137;SDS011;17947;50.672;6.076;2022-11-20T05:26:20;3.65;;;2.83;;
24137;SDS011;17947;50.672;6.076;2022-11-20T05:28:46;3.00;;;2.55;;
24137;SDS011;17947;50.672;6.076;2022-11-20T05:31:13;3.17;;;2.67;;
24137;SDS011;17947;50.672;6.076;2022-11-20T05:33:41;2.95;;;2.42;;
24137;SDS011;17947;50.672;6.076;2022-11-20T05:36:07;3.03;;;2.40;;
24137;SDS011;17947;50.672;6.076;2022-11-20T05:38:34;3.50;;;2.67;;
24137;SDS011;17947;50.672;6.076;2022-11-20T05:41:04;3.33;;;2.63;;
24137;SDS011;17947;50.672;6.076;2022-11-20T05:43:31;3.38;;;2.50;;
24137;SDS011;17947;50.672;6.076;2022-11-20T05:45:58;2.97;;;2.55;;
24137;SDS011;17947;50.672;6.076;2022-11-20T05:48:24;3.05;;;2.60;;
24137;SDS011;17947;50.672;6.076;2022-11-20T05:50:50;3.50;;;2.80;;
24137;SDS011;17947;50.672;6.076;2022-11-20T05:53:16;2.88;;;2.55;;
24137;SDS011;17947;50.672;6.076;2022-11-20T05:55:42;3.35;;;2.58;;
24137;SDS011;17947;50.672;6.076;2022-11-20T05:58:08;4.05;;;3.15;;
24137;SDS011;17947;50.672;6.076;2022-11-20T06:00:34;3.83;;;2.60;;
24137;SDS011;17947;50.672;6.076;2022-11-20T06:03:00;3.13;;;2.50;;
24137;SDS011;17947;50.672;6.076;2022-11-20T06:05:26;3.63;;;2.60;;
24137;SDS011;17947;50.672;6.076;2022-11-20T06:07:52;3.50;;;2.53;;
24137;SDS011;17947;50.672;6.076;2022-11-20T06:10:18;2.90;;;2.60;;
24137;SDS011;17947;50.672;6.076;2022-11-20T06:12:44;2.95;;;2.40;;
24137;SDS011;17947;50.672;6.076;2022-11-20T06:15:10;3.03;;;2.50;;
24137;SDS011;17947;50.672;6.076;2022-11-20T06:17:36;3.60;;;2.72;;
24137;SDS011;17947;50.672;6.076;2022-11-20T06:20:02;3.08;;;2.60;;
24137;SDS011;17947;50.672;6.076;2022-11-20T06:22:28;3.50;;;2.80;;
24137;SDS011;17947;50.672;6.076;2022-11-20T06:24:54;3.78;;;2.90;;
24137;SDS011;17947;50.672;6.076;2022-11-20T06:27:20;3.40;;;2.80;;
24137;SDS011;17947;50.672;6.076;2022-11-20T06:29:46;3.45;;;2.80;;
24137;SDS011;17947;50.672;6.076;2022-11-20T06:32:12;2.90;;;2.50;;
24137;SDS011;17947;50.672;6.076;2022-11-20T06:34:38;2.90;;;2.60;;
24137;SDS011;17947;50.672;6.076;2022-11-20T06:37:04;3.55;;;2.65;;
24137;SDS011;17947;50.672;6.076;2022-11-20T06:39:30;4.30;;;2.80;;
24137;SDS011;17947;50.672;6.076;2022-11-20T06:41:56;4.03;;;2.63;;
24137;SDS011;17947;50.672;6.076;2022-11-20T06:44:22;3.53;;;2.90;;
24137;SDS011;17947;50.672;6.076;2022-11-20T06:46:48;3.15;;;2.60;;
24137;SDS011;17947;50.672;6.076;2022-11-20T06:49:14;3.50;;;2.63;;
24137;SDS011;17947;50.672;6.076;2022-11-20T06:51:40;3.88;;;2.63;;
24137;SDS011;17947;50.672;6.076;2022-11-20T06:54:06;3.42;;;2.92;;
24137;SDS011;17947;50.672;6.076;2022-11-20T06:56:32;3.58;;;2.75;;
24137;SDS011;17947;50.672;6.076;2022-11-20T06:58:58;2.85;;;2.45;;
24137;SDS011;17947;50.672;6.076;2022-11-20T07:01:29;3.20;;;2.63;;
24137;SDS011;17947;50.672;6.076;2022-11-20T07:03:55;3.08;;;2.58;;
24137;SDS011;17947;50.672;6.076;2022-11-20T07:06:21;3.30;;;2.58;;
24137;SDS011;17947;50.672;6.076;2022-11-20T07:08:47;3.17;;;2.70;;
24137;SDS011;17947;50.672;6.076;2022-11-20T07:11:13;3.70;;;2.60;;
24137;SDS011;17947;50.672;6.076;2022-11-20T07:13:39;2.85;;;2.45;;
24137;SDS011;17947;50.672;6.076;2022-11-20T07:16:06;3.17;;;2.65;;
24137;SDS011;17947;50.672;6.076;2022-11-20T07:18:32;2.90;;;2.47;;
24137;SDS011;17947;50.672;6.076;2022-11-20T07:21:02;2.95;;;2.55;;
24137;SDS011;17947;50.672;6.076;2022-11-20T07:23:28;3.45;;;2.55;;
24137;SDS011;17947;50.672;6.076;2022-11-20T07:25:54;3.67;;;2.67;;
24137;SDS011;17947;50.672;6.076;2022-11-20T07:28:20;2.80;;;2.33;;
24137;SDS011;17947;50.672;6.076;2022-11-20T07:30:50;3.22;;;2.65;;
24137;SDS011;17947;50.672;6.076;2022-11-20T07:33:16;3.33;;;2.60;;
24137;SDS011;17947;50.672;6.076;2022-11-20T07:35:42;3.78;;;2.40;;
24137;SDS011;17947;50.672;6.076;2022-11-20T07:38:08;3.05;;;2.50;;
24137;SDS011;17947;50.672;6.076;2022-11-20T07:40:34;3.53;;;2.38;;
24137;SDS011;17947;50.672;6.076;2022-11-20T07:43:00;3.15;;;2.72;;
24137;SDS011;17947;50.672;6.076;2022-11-20T07:45:26;2.97;;;2.60;;
24137;SDS011;17947;50.672;6.076;2022-11-20T07:47:52;3.20;;;2.50;;
24137;SDS011;17947;50.672;6.076;2022-11-20T07:50:19;4.05;;;2.53;;
24137;SDS011;17947;50.672;6.076;2022-11-20T07:52:45;3.38;;;2.70;;
24137;SDS011;17947;50.672;6.076;2022-11-20T07:55:11;3.05;;;2.45;;
24137;SDS011;17947;50.672;6.076;2022-11-20T07:57:37;3.05;;;2.53;;
24137;SDS011;17947;50.672;6.076;2022-11-20T08:00:04;5.05;;;2.60;;
24137;SDS011;17947;50.672;6.076;2022-11-20T08:02:32;3.20;;;2.80;;
24137;SDS011;17947;50.672;6.076;2022-11-20T08:04:58;2.97;;;2.63;;
24137;SDS011;17947;50.672;6.076;2022-11-20T08:07:24;3.33;;;2.75;;
24137;SDS011;17947;50.672;6.076;2022-11-20T08:09:50;3.13;;;2.80;;
24137;SDS011;17947;50.672;6.076;2022-11-20T08:12:19;5.05;;;3.08;;
24137;SDS011;17947;50.672;6.076;2022-11-20T08:15:05;3.90;;;3.00;;
24137;SDS011;17947;50.672;6.076;2022-11-20T08:17:31;4.47;;;3.10;;
24137;SDS011;17947;50.672;6.076;2022-11-20T08:20:00;4.25;;;3.30;;
24137;SDS011;17947;50.672;6.076;2022-11-20T08:22:26;4.03;;;3.00;;
24137;SDS011;17947;50.672;6.076;2022-11-20T08:24:52;3.78;;;2.85;;
24137;SDS011;17947;50.672;6.076;2022-11-20T08:27:18;4.20;;;3.03;;
24137;SDS011;17947;50.672;6.076;2022-11-20T08:29:44;5.40;;;3.42;;
24137;SDS011;17947;50.672;6.076;2022-11-20T08:32:10;5.78;;;3.03;;
24137;SDS011;17947;50.672;6.076;2022-11-20T08:34:36;6.45;;;3.38;;
24137;SDS011;17947;50.672;6.076;2022-11-20T08:37:02;4.40;;;3.30;;
24137;SDS011;17947;50.672;6.076;2022-11-20T08:39:28;4.70;;;3.65;;
24137;SDS011;17947;50.672;6.076;2022-11-20T08:41:54;5.90;;;3.80;;
24137;SDS011;17947;50.672;6.076;2022-11-20T08:44:21;6.53;;;3.50;;
24137;SDS011;17947;50.672;6.076;2022-11-20T08:46:47;6.50;;;3.28;;
24137;SDS011;17947;50.672;6.076;2022-11-20T08:49:13;4.32;;;3.20;;
24137;SDS011;17947;50.672;6.076;2022-11-20T08:51:40;6.60;;;3.35;;
24137;SDS011;17947;50.672;6.076;2022-11-20T08:54:07;7.32;;;3.08;;
24137;SDS011;17947;50.672;6.076;2022-11-20T08:56:33;5.43;;;3.10;;
24137;SDS011;17947;50.672;6.076;2022-11-20T08:58:59;4.65;;;3.38;;
24137;SDS011;17947;50.672;6.076;2022-11-20T09:01:26;5.32;;;3.20;;
24137;SDS011;17947;50.672;6.076;2022-11-20T09:03:52;7.72;;;3.58;;
24137;SDS011;17947;50.672;6.076;2022-11-20T09:06:18;6.25;;;3.40;;
24137;SDS011;17947;50.672;6.076;2022-11-20T09:08:44;6.03;;;3.47;;
24137;SDS011;17947;50.672;6.076;2022-11-20T09:11:10;5.85;;;3.20;;
24137;SDS011;17947;50.672;6.076;2022-11-20T09:13:36;4.43;;;3.22;;
24137;SDS011;17947;50.672;6.076;2022-11-20T09:16:03;5.72;;;3.60;;
24137;SDS011;17947;50.672;6.076;2022-11-20T09:18:31;5.60;;;3.28;;
24137;SDS011;17947;50.672;6.076;2022-11-20T09:20:58;5.07;;;3.40;;
24137;SDS011;17947;50.672;6.076;2022-11-20T09:23:24;6.10;;;3.50;;
24137;SDS011;17947;50.672;6.076;2022-11-20T09:25:51;5.18;;;3.40;;
24137;SDS011;17947;50.672;6.076;2022-11-20T09:28:18;7.43;;;3.33;;
24137;SDS011;17947;50.672;6.076;2022-11-20T09:30:44;5.25;;;3.50;;
24137;SDS011;17947;50.672;6.076;2022-11-20T09:33:10;10.55;;;3.67;;
24137;SDS011;17947;50.672;6.076;2022-11-20T09:35:36;6.63;;;3.70;;
24137;SDS011;17947;50.672;6.076;2022-11-20T09:38:06;6.22;;;3.58;;
24137;SDS011;17947;50.672;6.076;2022-11-20T09:40:32;6.68;;;3.38;;
24137;SDS011;17947;50.672;6.076;2022-11-20T09:55:54;5.35;;;3.05;;
24137;SDS011;17947;50.672;6.076;2022-11-20T09:58:25;3.83;;;3.13;;
24137;SDS011;17947;50.672;6.076;2022-11-20T10:00:54;4.70;;;3.10;;
24137;SDS011;17947;50.672;6.076;2022-11-20T10:03:26;5.70;;;3.10;;
24137;SDS011;17947;50.672;6.076;2022-11-20T10:05:55;5.10;;;3.40;;
24137;SDS011;17947;50.672;6.076;2022-11-20T10:08:24;4.72;;;3.33;;
24137;SDS011;17947;50.672;6.076;2022-11-20T10:13:39;59.30;;;18.25;;
24137;SDS011;17947;50.672;6.076;2022-11-20T10:16:23;61.50;;;21.02;;
24137;SDS011;17947;50.672;6.076;2022-11-20T10:29:33;133.63;;;48.88;;
24137;SDS011;17947;50.672;6.076;2022-11-20T10:31:41;107.43;;;39.65;;
24137;SDS011;17947;50.672;6.076;2022-11-20T10:36:49;90.25;;;32.72;;
24137;SDS011;17947;50.672;6.076;2022-11-20T10:39:18;90.40;;;30.83;;
24137;SDS011;17947;50.672;6.076;2022-11-20T10:41:47;93.85;;;33.97;;
24137;SDS011;17947;50.672;6.076;2022-11-20T10:44:17;91.25;;;33.90;;
24137;SDS011;17947;50.672;6.076;2022-11-20T10:47:04;109.15;;;38.22;;
24137;SDS011;17947;50.672;6.076;2022-11-20T10:49:30;148.32;;;48.42;;
24137;SDS011;17947;50.672;6.076;2022-11-20T10:54:35;180.60;;;60.70;;
24137;SDS011;17947;50.672;6.076;2022-11-20T10:57:07;132.10;;;44.55;;
24137;SDS011;17947;50.672;6.076;2022-11-20T11:02:17;120.07;;;41.88;;
24137;SDS011;17947;50.672;6.076;2022-11-20T11:04:45;122.10;;;41.85;;
24137;SDS011;17947;50.672;6.076;2022-11-20T11:07:15;114.13;;;39.38;;
24137;SDS011;17947;50.672;6.076;2022-11-20T11:09:50;105.65;;;39.65;;
24137;SDS011;17947;50.672;6.076;2022-11-20T11:12:17;140.05;;;48.28;;
24137;SDS011;17947;50.672;6.076;2022-11-20T11:19:45;170.10;;;56.38;;
24137;SDS011;17947;50.672;6.076;2022-11-20T11:22:15;163.73;;;57.70;;
24137;SDS011;17947;50.672;6.076;2022-11-20T11:24:50;152.75;;;56.17;;
24137;SDS011;17947;50.672;6.076;2022-11-20T11:27:17;197.70;;;69.20;;
24137;SDS011;17947;50.672;6.076;2022-11-20T11:29:43;165.45;;;60.72;;
24137;SDS011;17947;50.672;6.076;2022-11-20T11:32:13;166.32;;;57.95;;
24137;SDS011;17947;50.672;6.076;2022-11-20T11:34:39;155.13;;;53.97;;
24137;SDS011;17947;50.672;6.076;2022-11-20T11:37:17;140.88;;;51.33;;
24137;SDS011;17947;50.672;6.076;2022-11-20T11:39:44;158.90;;;53.33;;
24137;SDS011;17947;50.672;6.076;2022-11-20T11:42:18;328.30;;;101.05;;
24137;SDS011;17947;50.672;6.076;2022-11-20T11:44:45;193.00;;;66.57;;
24137;SDS011;17947;50.672;6.076;2022-11-20T11:52:41;184.95;;;62.50;;
24137;SDS011;17947;50.672;6.076;2022-11-20T11:55:09;162.57;;;57.63;;
24137;SDS011;17947;50.672;6.076;2022-11-20T12:00:19;182.60;;;65.63;;
24137;SDS011;17947;50.672;6.076;2022-11-20T12:05:19;162.52;;;54.60;;
24137;SDS011;17947;50.672;6.076;2022-11-20T12:13:04;156.00;;;52.25;;
24137;SDS011;17947;50.672;6.076;2022-11-20T12:15:36;178.70;;;53.42;;
24137;SDS011;17947;50.672;6.076;2022-11-20T12:18:08;191.07;;;54.90;;
24137;SDS011;17947;50.672;6.076;2022-11-20T12:20:41;163.90;;;52.13;;
24137;SDS011;17947;50.672;6.076;2022-11-20T12:23:23;151.82;;;48.30;;
24137;SDS011;17947;50.672;6.076;2022-11-20T12:25:53;155.85;;;48.17;;
24137;SDS011;17947;50.672;6.076;2022-11-20T12:30:58;140.85;;;44.88;;
24137;SDS011;17947;50.672;6.076;2022-11-20T12:34:02;137.05;;;44.20;;
24137;SDS011;17947;50.672;6.076;2022-11-20T12:39:33;128.93;;;41.03;;
24137;SDS011;17947;50.672;6.076;2022-11-20T12:52:47;110.40;;;37.08;;
24137;SDS011;17947;50.672;6.076;2022-11-20T12:55:16;105.50;;;36.45;;
24137;SDS011;17947;50.672;6.076;2022-11-20T13:00:16;99.95;;;35.90;;
24137;SDS011;17947;50.672;6.076;2022-11-20T13:05:37;96.95;;;34.10;;
24137;SDS011;17947;50.672;6.076;2022-11-20T13:08:14;98.18;;;33.63;;
24137;SDS011;17947;50.672;6.076;2022-11-20T13:10:43;95.20;;;32.90;;
24137;SDS011;17947;50.672;6.076;2022-11-20T13:13:17;87.45;;;32.03;;
24137;SDS011;17947;50.672;6.076;2022-11-20T13:16:04;81.75;;;31.77;;
24137;SDS011;17947;50.672;6.076;2022-11-20T13:18:38;81.35;;;30.02;;
24137;SDS011;17947;50.672;6.076;2022-11-20T13:21:18;89.63;;;31.08;;
24137;SDS011;17947;50.672;6.076;2022-11-20T13:23:44;82.97;;;28.42;;
24137;SDS011;17947;50.672;6.076;2022-11-20T13:26:19;78.13;;;29.00;;
24137;SDS011;17947;50.672;6.076;2022-11-20T13:28:46;77.20;;;28.27;;
24137;SDS011;17947;50.672;6.076;2022-11-20T13:34:10;76.60;;;28.75;;
24137;SDS011;17947;50.672;6.076;2022-11-20T13:36:37;81.70;;;27.20;;
24137;SDS011;17947;50.672;6.076;2022-11-20T13:39:23;71.85;;;26.75;;
24137;SDS011;17947;50.672;6.076;2022-11-20T13:41:53;71.47;;;25.98;;
24137;SDS011;17947;50.672;6.076;2022-11-20T13:44:39;72.20;;;25.75;;
24137;SDS011;17947;50.672;6.076;2022-11-20T13:47:23;67.07;;;25.33;;
24137;SDS011;17947;50.672;6.076;2022-11-20T13:49:50;58.65;;;23.52;;
24137;SDS011;17947;50.672;6.076;2022-11-20T13:58:00;62.90;;;24.02;;
24137;SDS011;17947;50.672;6.076;2022-11-20T14:00:29;64.97;;;24.55;;
24137;SDS011;17947;50.672;6.076;2022-11-20T14:05:24;45.92;;;18.83;;
24137;SDS011;17947;50.672;6.076;2022-11-20T14:07:50;53.72;;;19.70;;
24137;SDS011;17947;50.672;6.076;2022-11-20T14:12:46;44.33;;;17.30;;
24137;SDS011;17947;50.672;6.076;2022-11-20T14:15:34;45.63;;;17.13;;
24137;SDS011;17947;50.672;6.076;2022-11-20T14:17:59;42.15;;;15.82;;
24137;SDS011;17947;50.672;6.076;2022-11-20T14:20:36;37.95;;;15.55;;
24137;SDS011;17947;50.672;6.076;2022-11-20T14:23:03;43.50;;;14.70;;
24137;SDS011;17947;50.672;6.076;2022-11-20T14:25:30;35.70;;;14.07;;
24137;SDS011;17947;50.672;6.076;2022-11-20T14:28:00;41.90;;;15.40;;
24137;SDS011;17947;50.672;6.076;2022-11-20T14:30:28;36.80;;;14.95;;
24137;SDS011;17947;50.672;6.076;2022-11-20T14:32:55;37.35;;;14.02;;
24137;SDS011;17947;50.672;6.076;2022-11-20T14:35:25;38.97;;;14.10;;
24137;SDS011;17947;50.672;6.076;2022-11-20T14:37:52;34.90;;;13.77;;
24137;SDS011;17947;50.672;6.076;2022-11-20T14:40:22;38.38;;;13.85;;
24137;SDS011;17947;50.672;6.076;2022-11-20T14:42:48;33.58;;;13.57;;
24137;SDS011;17947;50.672;6.076;2022-11-20T14:45:15;30.73;;;12.63;;
24137;SDS011;17947;50.672;6.076;2022-11-20T14:47:41;30.98;;;12.18;;
24137;SDS011;17947;50.672;6.076;2022-11-20T14:50:29;28.40;;;10.18;;
24137;SDS011;17947;50.672;6.076;2022-11-20T14:55:31;25.23;;;9.75;;
24137;SDS011;17947;50.672;6.076;2022-11-20T14:58:00;21.65;;;9.05;;
24137;SDS011;17947;50.672;6.076;2022-11-20T15:00:27;23.38;;;9.02;;
24137;SDS011;17947;50.672;6.076;2022-11-20T15:02:54;17.38;;;7.82;;
24137;SDS011;17947;50.672;6.076;2022-11-20T15:05:21;19.17;;;7.45;;
24137;SDS011;17947;50.672;6.076;2022-11-20T15:07:49;18.73;;;7.95;;
24137;SDS011;17947;50.672;6.076;2022-11-20T15:12:52;16.67;;;7.53;;
24137;SDS011;17947;50.672;6.076;2022-11-20T15:15:21;16.75;;;7.75;;
24137;SDS011;17947;50.672;6.076;2022-11-20T15:17:47;15.65;;;6.97;;
24137;SDS011;17947;50.672;6.076;2022-11-20T15:20:14;16.70;;;6.82;;
24137;SDS011;17947;50.672;6.076;2022-11-20T15:22:41;18.48;;;6.82;;
24137;SDS011;17947;50.672;6.076;2022-11-20T15:25:19;16.13;;;6.78;;
24137;SDS011;17947;50.672;6.076;2022-11-20T15:27:45;12.55;;;6.18;;
24137;SDS011;17947;50.672;6.076;2022-11-20T15:30:13;15.98;;;6.05;;
24137;SDS011;17947;50.672;6.076;2022-11-20T15:32:40;14.13;;;6.60;;
24137;SDS011;17947;50.672;6.076;2022-11-20T15:35:07;14.40;;;5.82;;
24137;SDS011;17947;50.672;6.076;2022-11-20T15:37:33;16.23;;;6.38;;
24137;SDS011;17947;50.672;6.076;2022-11-20T15:39:59;15.05;;;5.93;;
24137;SDS011;17947;50.672;6.076;2022-11-20T15:42:25;15.30;;;6.07;;
24137;SDS011;17947;50.672;6.076;2022-11-20T15:44:51;12.30;;;5.68;;
24137;SDS011;17947;50.672;6.076;2022-11-20T15:47:24;13.35;;;5.80;;
24137;SDS011;17947;50.672;6.076;2022-11-20T15:49:51;11.70;;;5.43;;
24137;SDS011;17947;50.672;6.076;2022-11-20T15:52:17;11.63;;;5.32;;
24137;SDS011;17947;50.672;6.076;2022-11-20T15:54:43;13.48;;;5.55;;
24137;SDS011;17947;50.672;6.076;2022-11-20T15:57:09;10.73;;;5.00;;
24137;SDS011;17947;50.672;6.076;2022-11-20T15:59:35;13.55;;;5.55;;
24137;SDS011;17947;50.672;6.076;2022-11-20T16:02:14;14.05;;;4.70;;
24137;SDS011;17947;50.672;6.076;2022-11-20T16:04:40;10.68;;;4.80;;
24137;SDS011;17947;50.672;6.076;2022-11-20T16:07:07;13.00;;;5.00;;
24137;SDS011;17947;50.672;6.076;2022-11-20T16:09:33;10.45;;;4.80;;
24137;SDS011;17947;50.672;6.076;2022-11-20T16:11:59;10.82;;;5.05;;
24137;SDS011;17947;50.672;6.076;2022-11-20T16:14:26;10.82;;;4.40;;
24137;SDS011;17947;50.672;6.076;2022-11-20T16:17:11;9.60;;;4.68;;
24137;SDS011;17947;50.672;6.076;2022-11-20T16:19:37;9.27;;;4.22;;
24137;SDS011;17947;50.672;6.076;2022-11-20T16:22:03;9.45;;;4.30;;
24137;SDS011;17947;50.672;6.076;2022-11-20T16:24:29;11.02;;;4.68;;
24137;SDS011;17947;50.672;6.076;2022-11-20T16:26:55;9.68;;;4.35;;